sensor_id;sensor_type;location;lat;lon;timestamp;pressure;altitude;pressure_sealevel;temperature;humidity
20424;BME280;10371;49.042;8.002;2023-03-04T00:00:23;100560.72;;;0.17;94.12
20424;BME280;10371;49.042;8.002;2023-03-04T00:01:24;100559.94;;;0.13;93.82
20424;BME280;10371;49.042;8.002;2023-03-04T00:02:24;100563.31;;;0.15;93.28
20424;BME280;10371;49.042;8.002;2023-03-04T00:03:25;100571.91;;;0.13;93.15
20424;BME280;10371;49.042;8.002;2023-03-04T00:04:25;100565.97;;;0.11;92.80
20424;BME280;10371;49.042;8.002;2023-03-04T00:05:25;100574.53;;;0.10;92.85
20424;BME280;10371;49.042;8.002;2023-03-04T00:06:25;100572.94;;;0.06;92.28
20424;BME280;10371;49.042;8.002;2023-03-04T00:07:26;100573.00;;;0.03;92.41
20424;BME280;10371;49.042;8.002;2023-03-04T00:08:26;100573.97;;;-0.02;92.28
20424;BME280;10371;49.042;8.002;2023-03-04T00:09:26;100578.19;;;-0.01;92.15
20424;BME280;10371;49.042;8.002;2023-03-04T00:10:26;100573.25;;;-0.07;92.08
20424;BME280;10371;49.042;8.002;2023-03-04T00:11:27;100573.41;;;-0.13;91.88
20424;BME280;10371;49.042;8.002;2023-03-04T00:12:27;100570.84;;;-0.14;92.20
20424;BME280;10371;49.042;8.002;2023-03-04T00:13:27;100577.69;;;-0.13;91.98
20424;BME280;10371;49.042;8.002;2023-03-04T00:14:27;100581.09;;;-0.14;91.96
20424;BME280;10371;49.042;8.002;2023-03-04T00:15:28;100572.63;;;-0.16;91.94
20424;BME280;10371;49.042;8.002;2023-03-04T00:16:28;100586.44;;;-0.24;92.07
20424;BME280;10371;49.042;8.002;2023-03-04T00:17:28;100572.06;;;-0.29;91.89
20424;BME280;10371;49.042;8.002;2023-03-04T00:18:30;100578.94;;;-0.31;92.24
20424;BME280;10371;49.042;8.002;2023-03-04T00:19:30;100573.91;;;-0.34;92.08
20424;BME280;10371;49.042;8.002;2023-03-04T00:20:31;100573.13;;;-0.38;92.20
20424;BME280;10371;49.042;8.002;2023-03-04T00:21:31;100578.25;;;-0.38;92.32
20424;BME280;10371;49.042;8.002;2023-03-04T00:22:31;100570.59;;;-0.39;92.75
20424;BME280;10371;49.042;8.002;2023-03-04T00:23:31;100571.50;;;-0.42;92.68
20424;BME280;10371;49.042;8.002;2023-03-04T00:24:32;100569.03;;;-0.45;92.78
20424;BME280;10371;49.042;8.002;2023-03-04T00:25:32;100571.59;;;-0.45;93.25
20424;BME280;10371;49.042;8.002;2023-03-04T00:26:32;100569.09;;;-0.47;93.47
20424;BME280;10371;49.042;8.002;2023-03-04T00:27:33;100571.72;;;-0.50;93.84
20424;BME280;10371;49.042;8.002;2023-03-04T00:28:33;100570.81;;;-0.49;94.13
20424;BME280;10371;49.042;8.002;2023-03-04T00:29:33;100576.81;;;-0.50;94.27
20424;BME280;10371;49.042;8.002;2023-03-04T00:30:33;100575.13;;;-0.51;94.93
20424;BME280;10371;49.042;8.002;2023-03-04T00:31:34;100578.56;;;-0.50;95.24
20424;BME280;10371;49.042;8.002;2023-03-04T00:32:34;100578.56;;;-0.52;95.07
20424;BME280;10371;49.042;8.002;2023-03-04T00:33:35;100587.16;;;-0.54;95.60
20424;BME280;10371;49.042;8.002;2023-03-04T00:34:35;100582.06;;;-0.56;95.41
20424;BME280;10371;49.042;8.002;2023-03-04T00:35:35;100581.34;;;-0.61;96.00
20424;BME280;10371;49.042;8.002;2023-03-04T00:36:36;100582.19;;;-0.60;96.42
20424;BME280;10371;49.042;8.002;2023-03-04T00:37:36;100582.13;;;-0.59;96.49
20424;BME280;10371;49.042;8.002;2023-03-04T00:38:36;100580.53;;;-0.63;96.44
20424;BME280;10371;49.042;8.002;2023-03-04T00:39:36;100586.53;;;-0.64;96.43
20424;BME280;10371;49.042;8.002;2023-03-04T00:40:37;100580.63;;;-0.68;96.08
20424;BME280;10371;49.042;8.002;2023-03-04T00:41:37;100579.78;;;-0.68;96.30
20424;BME280;10371;49.042;8.002;2023-03-04T00:42:37;100584.97;;;-0.71;96.31
20424;BME280;10371;49.042;8.002;2023-03-04T00:43:37;100579.94;;;-0.76;96.75
20424;BME280;10371;49.042;8.002;2023-03-04T00:44:38;100583.47;;;-0.81;96.76
20424;BME280;10371;49.042;8.002;2023-03-04T00:45:38;100581.03;;;-0.86;97.20
20424;BME280;10371;49.042;8.002;2023-03-04T00:46:38;100581.94;;;-0.88;97.75
20424;BME280;10371;49.042;8.002;2023-03-04T00:47:39;100577.75;;;-0.93;98.60
20424;BME280;10371;49.042;8.002;2023-03-04T00:48:39;100581.97;;;-0.90;98.94
20424;BME280;10371;49.042;8.002;2023-03-04T00:49:39;100589.63;;;-0.90;99.44
20424;BME280;10371;49.042;8.002;2023-03-04T00:50:39;100587.97;;;-0.91;99.88
20424;BME280;10371;49.042;8.002;2023-03-04T00:51:40;100581.16;;;-0.92;100.00
20424;BME280;10371;49.042;8.002;2023-03-04T00:52:40;100587.97;;;-0.91;100.00
20424;BME280;10371;49.042;8.002;2023-03-04T00:53:40;100582.00;;;-0.92;100.00
20424;BME280;10371;49.042;8.002;2023-03-04T00:54:41;100585.41;;;-0.91;100.00
20424;BME280;10371;49.042;8.002;2023-03-04T00:55:41;100584.53;;;-0.90;100.00
20424;BME280;10371;49.042;8.002;2023-03-04T00:56:41;100584.59;;;-0.93;100.00
20424;BME280;10371;49.042;8.002;2023-03-04T00:57:42;100580.31;;;-0.93;100.00
20424;BME280;10371;49.042;8.002;2023-03-04T00:58:42;100590.47;;;-0.90;100.00
20424;BME280;10371;49.042;8.002;2023-03-04T00:59:42;100584.50;;;-0.88;100.00
20424;BME280;10371;49.042;8.002;2023-03-04T01:00:43;100584.50;;;-0.88;100.00
20424;BME280;10371;49.042;8.002;2023-03-04T01:01:43;100586.25;;;-0.91;100.00
20424;BME280;10371;49.042;8.002;2023-03-04T01:02:43;100584.59;;;-0.93;100.00
20424;BME280;10371;49.042;8.002;2023-03-04T01:03:43;100584.59;;;-0.93;100.00
20424;BME280;10371;49.042;8.002;2023-03-04T01:04:44;100585.41;;;-0.93;100.00
20424;BME280;10371;49.042;8.002;2023-03-04T01:05:44;100586.31;;;-0.95;100.00
20424;BME280;10371;49.042;8.002;2023-03-04T01:06:44;100585.34;;;-0.88;100.00
20424;BME280;10371;49.042;8.002;2023-03-04T01:07:45;100579.41;;;-0.90;100.00
20424;BME280;10371;49.042;8.002;2023-03-04T01:08:46;100578.59;;;-0.92;100.00
20424;BME280;10371;49.042;8.002;2023-03-04T01:09:46;100579.53;;;-0.95;99.81
20424;BME280;10371;49.042;8.002;2023-03-04T01:10:46;100578.72;;;-0.97;100.00
20424;BME280;10371;49.042;8.002;2023-03-04T01:11:47;100580.44;;;-0.99;100.00
20424;BME280;10371;49.042;8.002;2023-03-04T01:12:47;100583.00;;;-0.97;100.00
20424;BME280;10371;49.042;8.002;2023-03-04T01:13:48;100577.06;;;-1.01;100.00
20424;BME280;10371;49.042;8.002;2023-03-04T01:14:48;100578.78;;;-1.00;100.00
20424;BME280;10371;49.042;8.002;2023-03-04T01:15:48;100580.59;;;-1.05;100.00
20424;BME280;10371;49.042;8.002;2023-03-04T01:16:49;100577.28;;;-1.10;100.00
20424;BME280;10371;49.042;8.002;2023-03-04T01:17:49;100582.31;;;-1.07;100.00
20424;BME280;10371;49.042;8.002;2023-03-04T01:18:50;100579.06;;;-1.15;100.00
20424;BME280;10371;49.042;8.002;2023-03-04T01:19:50;100579.22;;;-1.21;100.00
20424;BME280;10371;49.042;8.002;2023-03-04T01:20:51;100569.00;;;-1.23;100.00
20424;BME280;10371;49.042;8.002;2023-03-04T01:21:51;100580.84;;;-1.19;100.00
20424;BME280;10371;49.042;8.002;2023-03-04T01:22:51;100578.25;;;-1.17;100.00
20424;BME280;10371;49.042;8.002;2023-03-04T01:23:51;100577.41;;;-1.16;100.00
20424;BME280;10371;49.042;8.002;2023-03-04T01:24:52;100579.06;;;-1.14;100.00
20424;BME280;10371;49.042;8.002;2023-03-04T01:25:52;100576.47;;;-1.12;100.00
20424;BME280;10371;49.042;8.002;2023-03-04T01:26:53;100573.00;;;-1.09;100.00
20424;BME280;10371;49.042;8.002;2023-03-04T01:27:53;100567.88;;;-1.08;100.00
20424;BME280;10371;49.042;8.002;2023-03-04T01:28:53;100572.88;;;-1.03;100.00
20424;BME280;10371;49.042;8.002;2023-03-04T01:29:53;100575.34;;;-0.99;100.00
20424;BME280;10371;49.042;8.002;2023-03-04T01:30:54;100577.81;;;-0.94;100.00
20424;BME280;10371;49.042;8.002;2023-03-04T01:31:54;100575.13;;;-0.90;100.00
20424;BME280;10371;49.042;8.002;2023-03-04T01:32:54;100575.94;;;-0.87;100.00
20424;BME280;10371;49.042;8.002;2023-03-04T01:33:55;100581.06;;;-0.87;100.00
20424;BME280;10371;49.042;8.002;2023-03-04T01:34:55;100575.94;;;-0.87;100.00
20424;BME280;10371;49.042;8.002;2023-03-04T01:35:55;100571.75;;;-0.90;100.00
20424;BME280;10371;49.042;8.002;2023-03-04T01:36:57;100575.13;;;-0.90;100.00
20424;BME280;10371;49.042;8.002;2023-03-04T01:37:57;100576.03;;;-0.92;100.00
20424;BME280;10371;49.042;8.002;2023-03-04T01:38:57;100576.97;;;-0.95;100.00
20424;BME280;10371;49.042;8.002;2023-03-04T01:39:58;100582.13;;;-0.98;100.00
20424;BME280;10371;49.042;8.002;2023-03-04T01:40:58;100573.78;;;-1.06;100.00
20424;BME280;10371;49.042;8.002;2023-03-04T01:41:59;100569.53;;;-1.07;99.94
20424;BME280;10371;49.042;8.002;2023-03-04T01:42:59;100566.97;;;-1.05;99.71
20424;BME280;10371;49.042;8.002;2023-03-04T01:44:00;100576.25;;;-1.01;99.56
20424;BME280;10371;49.042;8.002;2023-03-04T01:45:03;100579.63;;;-0.99;99.50
20424;BME280;10371;49.042;8.002;2023-03-04T01:46:04;100575.28;;;-0.96;99.45
20424;BME280;10371;49.042;8.002;2023-03-04T01:47:05;100566.91;;;-1.04;99.11
20424;BME280;10371;49.042;8.002;2023-03-04T01:48:07;100572.00;;;-1.02;98.91
20424;BME280;10371;49.042;8.002;2023-03-04T01:49:11;100572.94;;;-1.06;98.95
20424;BME280;10371;49.042;8.002;2023-03-04T01:50:20;100567.06;;;-1.10;98.32
20424;BME280;10371;49.042;8.002;2023-03-04T01:51:21;100569.63;;;-1.12;98.34
20424;BME280;10371;49.042;8.002;2023-03-04T01:52:22;100568.78;;;-1.10;98.33
20424;BME280;10371;49.042;8.002;2023-03-04T01:53:25;100561.94;;;-1.10;98.47
20424;BME280;10371;49.042;8.002;2023-03-04T01:54:25;100563.63;;;-1.09;98.25
20424;BME280;10371;49.042;8.002;2023-03-04T01:55:27;100565.31;;;-1.08;98.45
20424;BME280;10371;49.042;8.002;2023-03-04T01:56:33;100563.72;;;-1.14;98.55
20424;BME280;10371;49.042;8.002;2023-03-04T01:57:34;100560.28;;;-1.11;98.12
20424;BME280;10371;49.042;8.002;2023-03-04T01:58:35;100564.50;;;-1.10;98.03
20424;BME280;10371;49.042;8.002;2023-03-04T01:59:35;100561.09;;;-1.10;98.07
20424;BME280;10371;49.042;8.002;2023-03-04T02:00:36;100559.47;;;-1.15;98.12
20424;BME280;10371;49.042;8.002;2023-03-04T02:01:37;100552.72;;;-1.17;97.97
20424;BME280;10371;49.042;8.002;2023-03-04T02:02:38;100555.25;;;-1.16;98.01
20424;BME280;10371;49.042;8.002;2023-03-04T02:03:39;100563.75;;;-1.15;97.98
20424;BME280;10371;49.042;8.002;2023-03-04T02:04:40;100556.13;;;-1.17;97.90
20424;BME280;10371;49.042;8.002;2023-03-04T02:05:45;100555.22;;;-1.14;97.70
20424;BME280;10371;49.042;8.002;2023-03-04T02:06:47;100558.63;;;-1.15;97.57
20424;BME280;10371;49.042;8.002;2023-03-04T02:07:49;100552.72;;;-1.17;98.25
20424;BME280;10371;49.042;8.002;2023-03-04T02:08:50;100552.75;;;-1.19;98.24
20424;BME280;10371;49.042;8.002;2023-03-04T02:09:50;100552.75;;;-1.19;98.23
20424;BME280;10371;49.042;8.002;2023-03-04T02:10:51;100549.31;;;-1.18;98.55
20424;BME280;10371;49.042;8.002;2023-03-04T02:11:52;100555.28;;;-1.17;98.72
20424;BME280;10371;49.042;8.002;2023-03-04T02:12:53;100542.47;;;-1.16;98.63
20424;BME280;10371;49.042;8.002;2023-03-04T02:13:53;100539.91;;;-1.14;98.83
20424;BME280;10371;49.042;8.002;2023-03-04T02:14:53;100539.91;;;-1.14;98.73
20424;BME280;10371;49.042;8.002;2023-03-04T02:15:54;100541.63;;;-1.16;98.64
20424;BME280;10371;49.042;8.002;2023-03-04T02:16:54;100545.00;;;-1.14;98.72
20424;BME280;10371;49.042;8.002;2023-03-04T02:17:54;100549.19;;;-1.12;98.67
20424;BME280;10371;49.042;8.002;2023-03-04T02:18:55;100548.41;;;-1.15;98.59
20424;BME280;10371;49.042;8.002;2023-03-04T02:20:03;100542.47;;;-1.16;98.52
20424;BME280;10371;49.042;8.002;2023-03-04T02:21:22;100545.19;;;-1.23;98.38
20424;BME280;10371;49.042;8.002;2023-03-04T02:22:24;100543.50;;;-1.24;98.69
20424;BME280;10371;49.042;8.002;2023-03-04T02:23:45;100546.06;;;-1.24;98.32
20424;BME280;10371;49.042;8.002;2023-03-04T02:24:55;100543.56;;;-1.27;98.15
20424;BME280;10371;49.042;8.002;2023-03-04T02:26:18;100546.19;;;-1.30;98.34
20424;BME280;10371;49.042;8.002;2023-03-04T02:27:18;100542.06;;;-1.38;98.29
20424;BME280;10371;49.042;8.002;2023-03-04T02:28:19;100548.00;;;-1.37;98.42
20424;BME280;10371;49.042;8.002;2023-03-04T02:29:19;100535.28;;;-1.39;98.32
20424;BME280;10371;49.042;8.002;2023-03-04T02:30:22;100543.78;;;-1.38;98.40
20424;BME280;10371;49.042;8.002;2023-03-04T02:31:34;100543.00;;;-1.42;98.05
20424;BME280;10371;49.042;8.002;2023-03-04T02:32:35;100545.66;;;-1.46;98.18
20424;BME280;10371;49.042;8.002;2023-03-04T02:33:35;100545.72;;;-1.51;98.34
20424;BME280;10371;49.042;8.002;2023-03-04T02:34:35;100545.66;;;-1.48;98.34
20424;BME280;10371;49.042;8.002;2023-03-04T02:35:37;100541.44;;;-1.49;98.44
20424;BME280;10371;49.042;8.002;2023-03-04T02:36:38;100545.66;;;-1.48;98.16
20424;BME280;10371;49.042;8.002;2023-03-04T02:37:39;100544.00;;;-1.49;98.13
20424;BME280;10371;49.042;8.002;2023-03-04T02:38:39;100548.22;;;-1.48;97.87
20424;BME280;10371;49.042;8.002;2023-03-04T02:39:45;100538.94;;;-1.50;98.21
20424;BME280;10371;49.042;8.002;2023-03-04T02:40:47;100539.78;;;-1.50;98.22
20424;BME280;10371;49.042;8.002;2023-03-04T02:41:53;100542.34;;;-1.51;98.01
20424;BME280;10371;49.042;8.002;2023-03-04T02:42:53;100540.75;;;-1.57;97.96
20424;BME280;10371;49.042;8.002;2023-03-04T02:43:54;100539.06;;;-1.58;98.16
20424;BME280;10371;49.042;8.002;2023-03-04T02:44:59;100543.31;;;-1.57;98.14
20424;BME280;10371;49.042;8.002;2023-03-04T02:45:59;100539.06;;;-1.58;98.31
20424;BME280;10371;49.042;8.002;2023-03-04T02:47:01;100539.94;;;-1.59;98.17
20424;BME280;10371;49.042;8.002;2023-03-04T02:48:02;100538.38;;;-1.66;98.21
20424;BME280;10371;49.042;8.002;2023-03-04T02:49:02;100542.59;;;-1.65;98.00
20424;BME280;10371;49.042;8.002;2023-03-04T02:50:03;100541.75;;;-1.64;98.38
20424;BME280;10371;49.042;8.002;2023-03-04T02:51:04;100538.34;;;-1.65;98.69
20424;BME280;10371;49.042;8.002;2023-03-04T02:52:07;100546.84;;;-1.64;98.45
20424;BME280;10371;49.042;8.002;2023-03-04T02:53:08;100547.72;;;-1.65;98.65
20424;BME280;10371;49.042;8.002;2023-03-04T02:54:17;100540.88;;;-1.65;98.83
20424;BME280;10371;49.042;8.002;2023-03-04T02:55:18;100542.59;;;-1.64;98.74
20424;BME280;10371;49.042;8.002;2023-03-04T02:56:18;100540.09;;;-1.67;99.08
20424;BME280;10371;49.042;8.002;2023-03-04T02:57:19;100540.94;;;-1.66;99.25
20424;BME280;10371;49.042;8.002;2023-03-04T02:58:19;100540.88;;;-1.65;99.23
20424;BME280;10371;49.042;8.002;2023-03-04T02:59:21;100541.75;;;-1.66;99.45
20424;BME280;10371;49.042;8.002;2023-03-04T03:00:22;100546.16;;;-1.72;99.58
20424;BME280;10371;49.042;8.002;2023-03-04T03:01:27;100545.28;;;-1.73;99.76
20424;BME280;10371;49.042;8.002;2023-03-04T03:02:27;100540.25;;;-1.76;100.00
20424;BME280;10371;49.042;8.002;2023-03-04T03:03:27;100538.50;;;-1.74;100.00
20424;BME280;10371;49.042;8.002;2023-03-04T03:04:28;100547.00;;;-1.72;100.00
20424;BME280;10371;49.042;8.002;2023-03-04T03:05:30;100537.69;;;-1.74;100.00
20424;BME280;10371;49.042;8.002;2023-03-04T03:06:31;100543.63;;;-1.74;100.00
20424;BME280;10371;49.042;8.002;2023-03-04T03:07:31;100537.72;;;-1.77;100.00
20424;BME280;10371;49.042;8.002;2023-03-04T03:08:33;100536.97;;;-1.83;100.00
20424;BME280;10371;49.042;8.002;2023-03-04T03:09:34;100538.66;;;-1.82;99.93
20424;BME280;10371;49.042;8.002;2023-03-04T03:10:34;100536.16;;;-1.85;100.00
20424;BME280;10371;49.042;8.002;2023-03-04T03:11:35;100542.09;;;-1.84;100.00
20424;BME280;10371;49.042;8.002;2023-03-04T03:12:35;100529.38;;;-1.86;99.98
20424;BME280;10371;49.042;8.002;2023-03-04T03:13:35;100544.63;;;-1.83;99.85
20424;BME280;10371;49.042;8.002;2023-03-04T03:14:36;100541.31;;;-1.88;99.80
20424;BME280;10371;49.042;8.002;2023-03-04T03:15:36;100544.75;;;-1.90;99.72
20424;BME280;10371;49.042;8.002;2023-03-04T03:16:41;100541.38;;;-1.91;99.68
20424;BME280;10371;49.042;8.002;2023-03-04T03:17:42;100538.00;;;-1.93;99.50
20424;BME280;10371;49.042;8.002;2023-03-04T03:18:43;100536.28;;;-1.92;99.65
20424;BME280;10371;49.042;8.002;2023-03-04T03:19:43;100545.59;;;-1.88;99.53
20424;BME280;10371;49.042;8.002;2023-03-04T03:20:43;100543.91;;;-1.89;99.35
20424;BME280;10371;49.042;8.002;2023-03-04T03:21:43;100548.09;;;-1.87;99.50
20424;BME280;10371;49.042;8.002;2023-03-04T03:22:44;100544.69;;;-1.87;99.57
20424;BME280;10371;49.042;8.002;2023-03-04T03:23:44;100543.84;;;-1.86;99.39
20424;BME280;10371;49.042;8.002;2023-03-04T03:24:44;100543.84;;;-1.86;99.37
20424;BME280;10371;49.042;8.002;2023-03-04T03:25:45;100543.91;;;-1.89;99.17
20424;BME280;10371;49.042;8.002;2023-03-04T03:26:45;100543.03;;;-1.90;99.28
20424;BME280;10371;49.042;8.002;2023-03-04T03:27:45;100541.38;;;-1.91;99.35
20424;BME280;10371;49.042;8.002;2023-03-04T03:28:46;100545.66;;;-1.93;99.28
20424;BME280;10371;49.042;8.002;2023-03-04T03:29:46;100543.22;;;-1.99;99.17
20424;BME280;10371;49.042;8.002;2023-03-04T03:30:46;100555.09;;;-1.98;99.18
20424;BME280;10371;49.042;8.002;2023-03-04T03:31:47;100544.06;;;-1.98;99.14
20424;BME280;10371;49.042;8.002;2023-03-04T03:32:47;100550.03;;;-1.99;99.11
20424;BME280;10371;49.042;8.002;2023-03-04T03:33:47;100546.66;;;-2.00;99.12
20424;BME280;10371;49.042;8.002;2023-03-04T03:34:48;100543.22;;;-1.99;99.34
20424;BME280;10371;49.042;8.002;2023-03-04T03:35:48;100549.13;;;-1.97;99.29
20424;BME280;10371;49.042;8.002;2023-03-04T03:36:48;100544.94;;;-2.01;98.99
20424;BME280;10371;49.042;8.002;2023-03-04T03:37:48;100546.66;;;-2.00;99.05
20424;BME280;10371;49.042;8.002;2023-03-04T03:38:49;100539.91;;;-2.04;98.97
20424;BME280;10371;49.042;8.002;2023-03-04T03:39:49;100542.50;;;-2.07;98.90
20424;BME280;10371;49.042;8.002;2023-03-04T03:40:49;100539.13;;;-2.09;98.84
20424;BME280;10371;49.042;8.002;2023-03-04T03:41:49;100541.69;;;-2.09;98.96
20424;BME280;10371;49.042;8.002;2023-03-04T03:42:50;100548.50;;;-2.10;98.97
20424;BME280;10371;49.042;8.002;2023-03-04T03:43:50;100544.22;;;-2.08;98.75
20424;BME280;10371;49.042;8.002;2023-03-04T03:44:50;100545.09;;;-2.10;99.04
20424;BME280;10371;49.042;8.002;2023-03-04T03:45:51;100546.84;;;-2.12;98.70
20424;BME280;10371;49.042;8.002;2023-03-04T03:46:51;100547.72;;;-2.15;98.95
20424;BME280;10371;49.042;8.002;2023-03-04T03:47:51;100544.34;;;-2.15;98.81
20424;BME280;10371;49.042;8.002;2023-03-04T03:48:51;100536.75;;;-2.18;98.64
20424;BME280;10371;49.042;8.002;2023-03-04T03:49:52;100544.41;;;-2.18;98.94
20424;BME280;10371;49.042;8.002;2023-03-04T03:50:52;100538.47;;;-2.20;98.89
20424;BME280;10371;49.042;8.002;2023-03-04T03:51:52;100541.03;;;-2.20;98.87
20424;BME280;10371;49.042;8.002;2023-03-04T03:52:53;100542.72;;;-2.21;99.02
20424;BME280;10371;49.042;8.002;2023-03-04T03:53:53;100541.06;;;-2.23;98.88
20424;BME280;10371;49.042;8.002;2023-03-04T03:54:53;100545.38;;;-2.26;99.12
20424;BME280;10371;49.042;8.002;2023-03-04T03:55:53;100549.63;;;-2.26;99.16
20424;BME280;10371;49.042;8.002;2023-03-04T03:56:54;100540.34;;;-2.30;98.87
20424;BME280;10371;49.042;8.002;2023-03-04T03:57:54;100546.31;;;-2.31;99.32
20424;BME280;10371;49.042;8.002;2023-03-04T03:58:54;100551.44;;;-2.33;99.14
20424;BME280;10371;49.042;8.002;2023-03-04T03:59:55;100543.00;;;-2.36;99.01
20424;BME280;10371;49.042;8.002;2023-03-04T04:00:56;100544.72;;;-2.38;99.04
20424;BME280;10371;49.042;8.002;2023-03-04T04:01:56;100543.00;;;-2.38;99.14
20424;BME280;10371;49.042;8.002;2023-03-04T04:02:57;100544.72;;;-2.38;99.45
20424;BME280;10371;49.042;8.002;2023-03-04T04:03:59;100537.91;;;-2.38;99.45
20424;BME280;10371;49.042;8.002;2023-03-04T04:04:59;100541.28;;;-2.37;99.57
20424;BME280;10371;49.042;8.002;2023-03-04T04:06:00;100543.06;;;-2.39;99.65
20424;BME280;10371;49.042;8.002;2023-03-04T04:07:00;100543.88;;;-2.39;99.89
20424;BME280;10371;49.042;8.002;2023-03-04T04:08:00;100538.81;;;-2.40;100.00
20424;BME280;10371;49.042;8.002;2023-03-04T04:09:00;100556.59;;;-2.37;100.00
20424;BME280;10371;49.042;8.002;2023-03-04T04:10:02;100549.00;;;-2.39;100.00
20424;BME280;10371;49.042;8.002;2023-03-04T04:11:03;100541.38;;;-2.42;100.00
20424;BME280;10371;49.042;8.002;2023-03-04T04:12:06;100553.31;;;-2.44;100.00
20424;BME280;10371;49.042;8.002;2023-03-04T04:13:07;100542.34;;;-2.49;100.00
20424;BME280;10371;49.042;8.002;2023-03-04T04:14:10;100546.56;;;-2.48;100.00
20424;BME280;10371;49.042;8.002;2023-03-04T04:15:11;100547.44;;;-2.49;100.00
20424;BME280;10371;49.042;8.002;2023-03-04T04:16:12;100556.00;;;-2.53;100.00
20424;BME280;10371;49.042;8.002;2023-03-04T04:17:12;100543.34;;;-2.59;100.00
20424;BME280;10371;49.042;8.002;2023-03-04T04:18:13;100549.28;;;-2.59;100.00
20424;BME280;10371;49.042;8.002;2023-03-04T04:19:16;100555.31;;;-2.64;100.00
20424;BME280;10371;49.042;8.002;2023-03-04T04:20:17;100557.06;;;-2.68;100.00
20424;BME280;10371;49.042;8.002;2023-03-04T04:21:17;100554.59;;;-2.73;100.00
20424;BME280;10371;49.042;8.002;2023-03-04T04:22:19;100556.22;;;-2.68;100.00
20424;BME280;10371;49.042;8.002;2023-03-04T04:23:20;100549.41;;;-2.66;100.00
20424;BME280;10371;49.042;8.002;2023-03-04T04:24:20;100552.78;;;-2.67;100.00
20424;BME280;10371;49.042;8.002;2023-03-04T04:25:20;100548.56;;;-2.68;100.00
20424;BME280;10371;49.042;8.002;2023-03-04T04:26:21;100547.69;;;-2.67;100.00
20424;BME280;10371;49.042;8.002;2023-03-04T04:27:21;100545.13;;;-2.64;100.00
20424;BME280;10371;49.042;8.002;2023-03-04T04:28:22;100547.63;;;-2.61;100.00
20424;BME280;10371;49.042;8.002;2023-03-04T04:29:23;100548.41;;;-2.58;100.00
20424;BME280;10371;49.042;8.002;2023-03-04T04:30:23;100555.19;;;-2.55;100.00
20424;BME280;10371;49.042;8.002;2023-03-04T04:31:24;100553.50;;;-2.56;100.00
20424;BME280;10371;49.042;8.002;2023-03-04T04:32:24;100551.84;;;-2.60;100.00
20424;BME280;10371;49.042;8.002;2023-03-04T04:33:24;100549.31;;;-2.60;100.00
20424;BME280;10371;49.042;8.002;2023-03-04T04:34:25;100544.22;;;-2.60;100.00
20424;BME280;10371;49.042;8.002;2023-03-04T04:35:25;100550.09;;;-2.57;100.00
20424;BME280;10371;49.042;8.002;2023-03-04T04:36:26;100546.72;;;-2.57;100.00
20424;BME280;10371;49.042;8.002;2023-03-04T04:37:26;100550.97;;;-2.58;100.00
20424;BME280;10371;49.042;8.002;2023-03-04T04:38:27;100547.53;;;-2.57;100.00
20424;BME280;10371;49.042;8.002;2023-03-04T04:39:27;100550.09;;;-2.55;100.00
20424;BME280;10371;49.042;8.002;2023-03-04T04:40:27;100547.59;;;-2.58;100.00
20424;BME280;10371;49.042;8.002;2023-03-04T04:41:37;100550.16;;;-2.60;100.00
20424;BME280;10371;49.042;8.002;2023-03-04T04:42:37;100553.53;;;-2.59;100.00
20424;BME280;10371;49.042;8.002;2023-03-04T04:43:38;100549.31;;;-2.60;100.00
20424;BME280;10371;49.042;8.002;2023-03-04T04:44:38;100549.38;;;-2.65;100.00
20424;BME280;10371;49.042;8.002;2023-03-04T04:45:38;100554.50;;;-2.66;100.00
20424;BME280;10371;49.042;8.002;2023-03-04T04:46:39;100552.78;;;-2.67;100.00
20424;BME280;10371;49.042;8.002;2023-03-04T04:47:40;100553.66;;;-2.68;100.00
20424;BME280;10371;49.042;8.002;2023-03-04T04:48:40;100553.63;;;-2.65;100.00
20424;BME280;10371;49.042;8.002;2023-03-04T04:49:40;100557.88;;;-2.64;100.00
20424;BME280;10371;49.042;8.002;2023-03-04T04:50:41;100552.78;;;-2.64;100.00
20424;BME280;10371;49.042;8.002;2023-03-04T04:51:41;100554.44;;;-2.63;100.00
20424;BME280;10371;49.042;8.002;2023-03-04T04:52:41;100555.28;;;-2.63;100.00
20424;BME280;10371;49.042;8.002;2023-03-04T04:53:42;100561.25;;;-2.64;100.00
20424;BME280;10371;49.042;8.002;2023-03-04T04:54:42;100561.31;;;-2.68;100.00
20424;BME280;10371;49.042;8.002;2023-03-04T04:55:42;100557.91;;;-2.67;100.00
20424;BME280;10371;49.042;8.002;2023-03-04T04:56:43;100563.00;;;-2.67;100.00
20424;BME280;10371;49.042;8.002;2023-03-04T04:57:43;100564.75;;;-2.70;100.00
20424;BME280;10371;49.042;8.002;2023-03-04T04:58:45;100555.41;;;-2.71;100.00
20424;BME280;10371;49.042;8.002;2023-03-04T04:59:45;100556.22;;;-2.68;100.00
20424;BME280;10371;49.042;8.002;2023-03-04T05:00:45;100557.91;;;-2.67;100.00
20424;BME280;10371;49.042;8.002;2023-03-04T05:01:46;100556.22;;;-2.68;100.00
20424;BME280;10371;49.042;8.002;2023-03-04T05:02:46;100559.59;;;-2.68;100.00
20424;BME280;10371;49.042;8.002;2023-03-04T05:03:47;100557.94;;;-2.69;100.00
20424;BME280;10371;49.042;8.002;2023-03-04T05:04:49;100557.16;;;-2.73;100.00
20424;BME280;10371;49.042;8.002;2023-03-04T05:05:49;100555.47;;;-2.77;100.00
20424;BME280;10371;49.042;8.002;2023-03-04T05:06:50;100553.81;;;-2.78;100.00
20424;BME280;10371;49.042;8.002;2023-03-04T05:07:50;100550.38;;;-2.77;100.00
20424;BME280;10371;49.042;8.002;2023-03-04T05:08:51;100562.25;;;-2.74;100.00
20424;BME280;10371;49.042;8.002;2023-03-04T05:09:51;100557.19;;;-2.76;100.00
20424;BME280;10371;49.042;8.002;2023-03-04T05:10:51;100551.28;;;-2.79;100.00
20424;BME280;10371;49.042;8.002;2023-03-04T05:11:52;100552.09;;;-2.79;100.00
20424;BME280;10371;49.042;8.002;2023-03-04T05:12:52;100552.97;;;-2.80;100.00
20424;BME280;10371;49.042;8.002;2023-03-04T05:13:52;100549.56;;;-2.79;100.00
20424;BME280;10371;49.042;8.002;2023-03-04T05:14:53;100560.63;;;-2.78;100.00
20424;BME280;10371;49.042;8.002;2023-03-04T05:15:54;100561.50;;;-2.81;100.00
20424;BME280;10371;49.042;8.002;2023-03-04T05:16:54;100549.59;;;-2.82;100.00